Time;durP1;ratioP1;P1;durP2;ratioP2;P2;SDS_P1;SDS_P2;PMS_P1;PMS_P2;Temp;Humidity;BMP_temperature;BMP_pressure;BME280_temperature;BME280_humidity;BME280_pressure;Samples;Min_cycle;Max_cycle;Signal;HPM_P1;HPM_P2
2023/01/09 00:01:57;;;;;;;15.35;11.02;;;3.60;99.90;;;;;;5111272;28;20212;-82
2023/01/09 00:04:29;;;;;;;12.57;10.52;;;3.60;99.90;;;;;;5111357;28;20226;-81
2023/01/09 00:06:57;;;;;;;14.32;10.90;;;3.60;99.90;;;;;;5111198;28;20223;-81
2023/01/09 00:09:26;;;;;;;13.45;11.55;;;3.60;99.90;;;;;;5111305;28;20207;-81
2023/01/09 00:11:57;;;;;;;13.00;11.10;;;3.70;99.90;;;;;;5111284;28;20208;-82
2023/01/09 00:14:28;;;;;;;18.98;12.32;;;3.70;99.90;;;;;;5111093;28;20208;-86
2023/01/09 00:16:57;;;;;;;13.73;11.43;;;3.70;99.90;;;;;;5111221;28;20255;-85
2023/01/09 00:19:25;;;;;;;15.20;11.95;;;3.70;99.90;;;;;;5111516;28;20204;-85
2023/01/09 00:21:53;;;;;;;19.55;13.02;;;3.70;99.90;;;;;;5110932;28;20204;-85
2023/01/09 00:24:22;;;;;;;13.43;11.32;;;3.70;99.90;;;;;;5111754;28;20211;-84
2023/01/09 00:26:50;;;;;;;13.25;11.45;;;3.80;99.90;;;;;;5111079;28;20226;-84
2023/01/09 00:29:19;;;;;;;16.88;12.85;;;3.80;99.90;;;;;;5110813;28;20221;-85
2023/01/09 00:31:49;;;;;;;14.95;12.23;;;3.80;99.90;;;;;;5110985;28;20207;-86
2023/01/09 00:34:17;;;;;;;12.57;11.23;;;3.80;99.90;;;;;;5112544;28;20203;-86
2023/01/09 00:36:45;;;;;;;12.00;10.90;;;3.80;99.90;;;;;;5113440;28;20223;-84
2023/01/09 00:39:14;;;;;;;16.02;12.65;;;3.80;99.90;;;;;;5113101;28;20204;-84
2023/01/09 00:41:44;;;;;;;17.90;13.88;;;3.80;99.90;;;;;;5113702;28;20204;-84
2023/01/09 00:44:15;;;;;;;14.38;11.90;;;3.80;99.90;;;;;;5113598;28;20226;-84
2023/01/09 00:46:53;;;;;;;15.85;13.35;;;3.80;99.90;;;;;;5113036;28;20222;-85
2023/01/09 00:49:23;;;;;;;14.35;11.98;;;3.80;99.90;;;;;;5113376;28;20297;-84
2023/01/09 00:51:54;;;;;;;14.45;12.77;;;3.80;99.90;;;;;;5113127;28;20211;-85
2023/01/09 00:54:23;;;;;;;15.18;13.38;;;3.80;99.90;;;;;;5113372;28;20195;-85
2023/01/09 00:56:51;;;;;;;13.85;12.15;;;3.80;99.90;;;;;;5113091;28;20227;-85
2023/01/09 00:59:19;;;;;;;13.60;12.05;;;3.80;99.90;;;;;;5112848;28;20218;-85
2023/01/09 01:01:48;;;;;;;16.05;13.38;;;3.80;99.90;;;;;;5112811;28;20218;-85
2023/01/09 01:09:48;;;;;;;17.88;13.10;;;3.80;99.90;;;;;;5113572;28;20217;-85
2023/01/09 01:12:17;;;;;;;14.00;12.38;;;3.70;99.90;;;;;;5113197;28;20217;-85
2023/01/09 01:14:45;;;;;;;13.32;11.90;;;3.80;99.90;;;;;;5112975;28;20211;-85
2023/01/09 01:17:13;;;;;;;15.57;12.93;;;3.70;99.90;;;;;;5112874;28;20223;-85
2023/01/09 01:19:41;;;;;;;15.23;13.30;;;3.70;99.90;;;;;;5113021;28;20295;-84
2023/01/09 01:22:11;;;;;;;14.52;13.07;;;3.60;99.90;;;;;;5113358;28;20219;-84
2023/01/09 01:24:40;;;;;;;15.90;12.65;;;3.70;99.90;;;;;;5112767;28;20200;-85
2023/01/09 01:27:08;;;;;;;15.65;13.43;;;3.70;99.90;;;;;;5112607;28;20226;-85
2023/01/09 01:29:36;;;;;;;13.90;12.45;;;3.70;99.90;;;;;;5112920;28;20290;-84
2023/01/09 01:32:05;;;;;;;17.40;12.80;;;3.70;99.90;;;;;;5112747;28;20296;-84
2023/01/09 01:34:33;;;;;;;24.70;12.80;;;3.70;99.90;;;;;;5112894;28;20211;-84
2023/01/09 01:37:01;;;;;;;13.55;11.98;;;3.60;99.90;;;;;;5112822;28;20231;-84
2023/01/09 01:39:31;;;;;;;13.18;11.90;;;3.60;99.90;;;;;;5112586;28;20206;-84
2023/01/09 01:41:59;;;;;;;23.60;14.07;;;3.60;99.90;;;;;;5112562;28;20204;-85
2023/01/09 01:44:58;;;;;;;17.58;12.35;;;3.60;99.90;;;;;;5113071;28;20291;-84
2023/01/09 01:47:33;;;;;;;12.77;11.38;;;3.60;99.90;;;;;;5116415;28;20200;-84
2023/01/09 01:50:04;;;;;;;13.93;11.77;;;3.60;99.90;;;;;;5116907;28;20191;-85
2023/01/09 01:52:35;;;;;;;13.95;11.80;;;3.60;99.90;;;;;;5116480;28;20214;-85
2023/01/09 01:55:09;;;;;;;15.38;12.98;;;3.60;99.90;;;;;;5116326;28;20204;-85
2023/01/09 01:57:40;;;;;;;13.27;11.38;;;3.60;99.90;;;;;;5116051;28;20307;-85
2023/01/09 02:00:10;;;;;;;14.68;13.13;;;3.60;99.90;;;;;;5116333;28;20219;-85
2023/01/09 02:02:39;;;;;;;13.50;12.20;;;3.60;99.90;;;;;;5116095;28;20219;-85
2023/01/09 02:05:07;;;;;;;14.98;12.65;;;3.70;99.90;;;;;;5116566;28;20272;-85
2023/01/09 02:07:36;;;;;;;18.70;13.20;;;3.70;99.90;;;;;;5116094;28;20206;-85
2023/01/09 02:10:07;;;;;;;13.07;11.60;;;3.70;99.90;;;;;;5115889;28;20207;-85
2023/01/09 02:12:35;;;;;;;16.13;13.77;;;3.70;99.90;;;;;;5116253;28;20199;-85
2023/01/09 02:15:06;;;;;;;15.40;12.93;;;3.70;99.90;;;;;;5116034;28;20200;-85
2023/01/09 02:18:17;;;;;;;12.75;11.45;;;3.70;99.90;;;;;;5115815;28;20223;-84
2023/01/09 02:20:56;;;;;;;14.35;12.77;;;3.70;99.90;;;;;;5115859;28;20208;-85
2023/01/09 02:23:53;;;;;;;12.82;11.52;;;3.70;99.90;;;;;;5115950;28;20231;-85
2023/01/09 02:27:00;;;;;;;12.88;11.57;;;3.70;99.90;;;;;;5115856;28;20234;-85
2023/01/09 02:30:01;;;;;;;13.32;11.40;;;3.70;99.90;;;;;;5053530;28;20208;-85
2023/01/09 02:32:41;;;;;;;13.40;11.57;;;3.80;99.90;;;;;;5114225;28;20206;-85
2023/01/09 02:35:19;;;;;;;13.75;11.32;;;3.80;99.90;;;;;;5115851;28;20230;-85
2023/01/09 02:37:58;;;;;;;14.77;11.85;;;3.70;99.90;;;;;;5115494;28;20232;-85
2023/01/09 02:40:32;;;;;;;12.07;10.88;;;3.70;99.90;;;;;;5115676;28;20227;-85
2023/01/09 02:43:02;;;;;;;11.75;10.55;;;3.80;99.90;;;;;;5115696;28;20209;-86
2023/01/09 02:45:30;;;;;;;13.98;11.88;;;3.70;99.90;;;;;;5115067;28;20227;-85
2023/01/09 02:48:00;;;;;;;12.57;10.13;;;3.70;99.90;;;;;;5115234;28;20204;-85
2023/01/09 02:50:35;;;;;;;12.52;11.23;;;3.70;99.90;;;;;;5114924;28;20214;-85
2023/01/09 02:53:32;;;;;;;10.07;9.10;;;3.70;99.90;;;;;;5115715;28;20203;-85
2023/01/09 02:56:13;;;;;;;11.13;10.02;;;3.70;99.90;;;;;;5114714;28;20224;-84
2023/01/09 02:59:02;;;;;;;11.65;10.55;;;3.70;99.90;;;;;;5114756;28;20216;-85
2023/01/09 03:01:45;;;;;;;11.60;10.43;;;3.70;99.90;;;;;;5115162;28;20215;-86
2023/01/09 03:04:22;;;;;;;11.77;10.25;;;3.70;99.90;;;;;;5115362;28;20207;-84
2023/01/09 03:06:58;;;;;;;16.60;10.85;;;3.70;99.90;;;;;;5114722;28;20219;-84
2023/01/09 03:09:29;;;;;;;13.98;11.15;;;3.80;99.90;;;;;;5114826;28;20212;-84
2023/01/09 03:12:01;;;;;;;13.07;11.27;;;3.80;99.90;;;;;;5114651;28;20203;-84
2023/01/09 03:14:32;;;;;;;13.52;11.68;;;3.80;99.90;;;;;;5114676;28;20250;-85
2023/01/09 03:17:06;;;;;;;12.25;10.95;;;3.80;99.90;;;;;;5114442;28;20300;-85
2023/01/09 03:19:37;;;;;;;10.52;9.40;;;3.80;99.90;;;;;;5114634;28;20223;-85
2023/01/09 03:22:06;;;;;;;17.05;12.00;;;3.90;99.90;;;;;;5115004;28;20212;-85
2023/01/09 03:24:35;;;;;;;11.00;10.07;;;3.90;99.90;;;;;;5114820;28;20204;-85
2023/01/09 03:27:03;;;;;;;11.85;10.63;;;3.90;99.90;;;;;;5114385;28;20226;-85
2023/01/09 03:29:31;;;;;;;13.98;11.32;;;3.90;99.90;;;;;;5114255;28;20204;-85
2023/01/09 03:32:00;;;;;;;12.65;11.35;;;3.90;99.90;;;;;;5114493;28;20218;-85
2023/01/09 03:34:28;;;;;;;14.60;12.50;;;3.80;99.90;;;;;;5114498;28;20212;-85
2023/01/09 03:36:58;;;;;;;12.50;11.15;;;3.80;99.90;;;;;;5113907;28;20219;-85
2023/01/09 03:39:26;;;;;;;17.50;12.80;;;3.80;99.90;;;;;;5113867;28;20228;-85
2023/01/09 03:41:54;;;;;;;13.43;11.90;;;3.80;99.90;;;;;;5114014;28;20200;-85
2023/01/09 03:44:23;;;;;;;17.33;13.55;;;3.80;99.90;;;;;;5114058;28;20210;-85
2023/01/09 03:46:51;;;;;;;13.95;12.60;;;3.80;99.90;;;;;;5113735;28;20335;-85
2023/01/09 03:49:20;;;;;;;15.48;12.88;;;3.80;99.90;;;;;;5114177;28;20267;-85
2023/01/09 03:51:48;;;;;;;15.75;12.35;;;3.70;99.90;;;;;;5114025;28;20302;-85
2023/01/09 03:54:18;;;;;;;16.88;12.57;;;3.80;99.90;;;;;;5113823;28;20205;-85
2023/01/09 03:56:47;;;;;;;12.05;10.82;;;3.80;99.90;;;;;;5113521;28;20227;-85
2023/01/09 03:59:15;;;;;;;17.25;13.63;;;3.80;99.90;;;;;;5113549;28;20270;-85
2023/01/09 04:01:43;;;;;;;15.20;12.05;;;3.80;99.90;;;;;;5113524;28;20307;-84
2023/01/09 04:04:12;;;;;;;14.65;12.27;;;3.80;99.90;;;;;;5113605;28;20200;-85
2023/01/09 04:06:40;;;;;;;17.55;12.88;;;3.80;99.90;;;;;;5113496;28;20227;-85
2023/01/09 04:09:09;;;;;;;13.27;11.98;;;3.80;99.90;;;;;;5113495;28;20200;-85
2023/01/09 04:11:38;;;;;;;12.63;11.43;;;3.80;99.90;;;;;;5113821;28;20226;-84
2023/01/09 04:14:07;;;;;;;12.50;11.05;;;3.80;99.90;;;;;;5113444;28;20200;-84
2023/01/09 04:16:35;;;;;;;13.75;11.55;;;3.90;99.90;;;;;;5113054;28;20292;-85
2023/01/09 04:19:04;;;;;;;11.57;10.40;;;3.90;99.90;;;;;;5113197;28;20220;-84
2023/01/09 04:21:32;;;;;;;12.00;10.73;;;3.90;99.90;;;;;;5113350;28;20271;-84
2023/01/09 04:24:01;;;;;;;14.70;11.18;;;3.90;99.90;;;;;;5113396;28;20328;-84
2023/01/09 04:26:30;;;;;;;13.93;11.10;;;4.00;99.90;;;;;;5113163;28;20225;-85
2023/01/09 04:29:00;;;;;;;12.35;10.65;;;4.10;99.90;;;;;;5113079;28;20200;-84
2023/01/09 04:31:28;;;;;;;12.88;11.07;;;4.20;99.90;;;;;;5113544;28;20212;-85
2023/01/09 04:33:56;;;;;;;12.35;11.07;;;4.20;99.90;;;;;;5113059;28;20200;-84
2023/01/09 04:36:25;;;;;;;13.85;11.38;;;4.30;99.90;;;;;;5113203;28;20226;-83
2023/01/09 04:38:53;;;;;;;15.65;12.27;;;4.40;99.90;;;;;;5112926;28;20322;-84
2023/01/09 04:44:05;;;;;;;13.93;10.77;;;4.50;99.90;;;;;;5113031;28;20290;-85
2023/01/09 04:46:34;;;;;;;12.27;9.77;;;4.50;99.90;;;;;;5113186;28;20262;-84
2023/01/09 04:49:02;;;;;;;10.98;9.93;;;4.60;99.90;;;;;;5112795;28;20196;-84
2023/01/09 04:51:31;;;;;;;9.95;9.00;;;4.70;99.90;;;;;;5112912;28;20208;-85
2023/01/09 04:53:59;;;;;;;12.35;10.30;;;4.70;99.90;;;;;;5112949;28;20203;-85
2023/01/09 04:56:27;;;;;;;9.98;8.55;;;4.70;99.90;;;;;;5112815;28;20226;-85
2023/01/09 04:58:56;;;;;;;9.95;9.05;;;4.80;99.90;;;;;;5112884;28;20216;-85
2023/01/09 05:01:25;;;;;;;13.65;10.27;;;4.80;99.90;;;;;;5113050;28;20213;-85
2023/01/09 05:03:54;;;;;;;10.15;9.10;;;4.80;99.90;;;;;;5113010;28;20203;-84
2023/01/09 05:06:23;;;;;;;11.98;9.60;;;4.90;99.90;;;;;;5113001;28;20234;-85
2023/01/09 05:08:51;;;;;;;9.05;8.20;;;4.90;99.90;;;;;;5112723;28;20195;-85
2023/01/09 05:11:19;;;;;;;11.15;9.23;;;5.00;99.90;;;;;;5112984;28;20199;-84
2023/01/09 05:13:48;;;;;;;10.95;9.00;;;5.00;99.90;;;;;;5112687;28;20258;-85
2023/01/09 05:16:16;;;;;;;11.57;10.23;;;5.00;99.90;;;;;;5112855;28;20230;-84
2023/01/09 05:18:46;;;;;;;11.07;9.98;;;5.10;99.90;;;;;;5112492;28;20208;-84
2023/01/09 05:21:14;;;;;;;12.13;10.43;;;5.10;99.90;;;;;;5115966;28;20294;-84
2023/01/09 05:23:43;;;;;;;10.43;9.43;;;5.10;99.90;;;;;;5116629;28;20204;-83
2023/01/09 05:26:11;;;;;;;10.73;9.32;;;5.10;99.90;;;;;;5116617;28;20228;-84
2023/01/09 05:28:39;;;;;;;9.82;8.60;;;5.10;99.90;;;;;;5116779;28;20208;-84
2023/01/09 05:31:07;;;;;;;11.82;8.32;;;5.20;99.90;;;;;;5116677;28;20204;-84
2023/01/09 05:33:35;;;;;;;7.47;6.78;;;5.20;99.90;;;;;;5116505;28;20207;-84
2023/01/09 05:36:06;;;;;;;9.10;7.07;;;5.30;99.90;;;;;;5116389;28;20219;-84
2023/01/09 05:38:34;;;;;;;10.48;9.40;;;5.30;99.90;;;;;;5116489;28;20214;-83
2023/01/09 05:41:03;;;;;;;15.95;12.48;;;5.40;99.90;;;;;;5116245;28;20226;-83
2023/01/09 05:43:31;;;;;;;13.02;11.75;;;5.40;99.90;;;;;;5116406;28;20203;-84
2023/01/09 05:45:59;;;;;;;13.55;12.07;;;5.40;99.90;;;;;;5116296;28;20232;-84
2023/01/09 05:48:28;;;;;;;14.15;12.45;;;5.30;99.90;;;;;;5115911;28;20262;-84
2023/01/09 05:50:56;;;;;;;16.38;13.18;;;5.30;99.90;;;;;;5116144;28;20279;-84
2023/01/09 05:53:26;;;;;;;14.40;12.35;;;5.30;99.90;;;;;;5116193;28;20210;-84
2023/01/09 05:55:54;;;;;;;15.70;13.73;;;5.30;99.90;;;;;;5116279;28;20229;-84
2023/01/09 05:58:22;;;;;;;14.75;12.70;;;5.30;99.90;;;;;;5116002;28;20207;-83
2023/01/09 06:00:52;;;;;;;15.20;13.60;;;5.30;99.90;;;;;;5115650;28;20234;-84
2023/01/09 06:03:21;;;;;;;14.00;12.60;;;5.40;99.90;;;;;;5116136;28;20254;-84
2023/01/09 06:05:50;;;;;;;14.02;12.05;;;5.40;99.90;;;;;;5115935;28;20234;-84
2023/01/09 06:08:18;;;;;;;15.82;13.43;;;5.40;99.90;;;;;;5115768;28;20215;-84
2023/01/09 06:10:48;;;;;;;13.38;12.00;;;5.40;99.90;;;;;;5116042;28;20200;-84
2023/01/09 06:13:17;;;;;;;14.38;12.90;;;5.40;99.90;;;;;;5115703;28;20220;-84
2023/01/09 06:15:47;;;;;;;20.83;12.35;;;5.40;99.90;;;;;;5115565;28;20227;-84
2023/01/09 06:18:16;;;;;;;16.35;13.30;;;5.50;99.90;;;;;;5115484;28;20214;-84
2023/01/09 06:20:45;;;;;;;10.82;9.73;;;5.50;99.90;;;;;;5115358;28;20220;-83
2023/01/09 06:23:13;;;;;;;10.65;9.65;;;5.50;99.90;;;;;;5115666;28;20207;-84
2023/01/09 06:25:42;;;;;;;9.80;8.75;;;5.60;99.90;;;;;;5115567;28;20219;-83
2023/01/09 06:28:12;;;;;;;7.47;6.60;;;5.70;99.90;;;;;;5115212;28;20286;-84
2023/01/09 06:30:40;;;;;;;6.47;5.85;;;5.90;99.90;;;;;;5115268;28;20291;-84
2023/01/09 06:33:08;;;;;;;6.00;5.40;;;6.10;99.90;;;;;;5115173;28;20210;-83
2023/01/09 06:35:36;;;;;;;4.90;4.50;;;6.20;99.90;;;;;;5115237;28;20230;-84
2023/01/09 06:38:05;;;;;;;4.85;4.35;;;6.40;99.90;;;;;;5115289;28;20211;-84
2023/01/09 06:40:33;;;;;;;8.80;5.28;;;6.50;99.90;;;;;;5114931;28;20251;-84
2023/01/09 06:43:01;;;;;;;6.05;5.55;;;6.60;99.90;;;;;;5114587;28;20212;-84
2023/01/09 06:45:31;;;;;;;5.30;4.90;;;6.70;99.90;;;;;;5115059;28;20215;-84
2023/01/09 06:47:59;;;;;;;7.40;5.50;;;6.70;99.90;;;;;;5114696;28;20205;-84
2023/01/09 06:50:28;;;;;;;14.77;4.90;;;6.70;99.90;;;;;;5115144;28;20239;-85
2023/01/09 06:52:56;;;;;;;4.20;3.80;;;6.80;99.90;;;;;;5115110;28;20298;-84
2023/01/09 06:55:25;;;;;;;4.78;4.22;;;6.90;99.90;;;;;;5114615;28;20229;-86
2023/01/09 06:57:53;;;;;;;4.10;3.70;;;6.90;99.90;;;;;;5113447;28;20206;-91
2023/01/09 07:00:22;;;;;;;5.07;4.15;;;6.90;99.90;;;;;;5114366;28;20250;-91
2023/01/09 07:02:52;;;;;;;3.78;3.47;;;7.00;99.90;;;;;;5114770;28;20234;-85
2023/01/09 07:05:20;;;;;;;6.65;4.18;;;7.10;99.90;;;;;;5112387;27;20279;-85
2023/01/09 07:07:49;;;;;;;3.58;3.28;;;7.10;99.90;;;;;;5114027;28;20207;-85
2023/01/09 07:10:17;;;;;;;3.63;3.33;;;7.10;99.90;;;;;;5114401;28;20199;-84
2023/01/09 07:12:45;;;;;;;4.65;3.78;;;7.10;99.90;;;;;;5113702;28;20207;-86
2023/01/09 07:15:14;;;;;;;3.60;3.25;;;7.20;99.90;;;;;;5114055;28;20239;-85
2023/01/09 07:17:44;;;;;;;2.92;2.72;;;7.30;99.90;;;;;;5114130;28;20238;-85
2023/01/09 07:20:14;;;;;;;3.03;2.83;;;7.30;99.90;;;;;;5114005;28;20223;-86
2023/01/09 07:22:42;;;;;;;3.80;3.40;;;7.40;99.90;;;;;;5114420;28;20299;-86
2023/01/09 07:25:11;;;;;;;3.03;2.80;;;7.40;99.90;;;;;;5114007;28;20204;-86
2023/01/09 07:27:39;;;;;;;3.92;2.80;;;7.40;99.90;;;;;;5114194;28;20199;-86
2023/01/09 07:30:12;;;;;;;3.78;3.33;;;7.40;99.90;;;;;;5114121;28;20210;-85
2023/01/09 07:32:40;;;;;;;3.25;2.83;;;7.40;99.90;;;;;;5113642;28;20196;-86
2023/01/09 07:35:10;;;;;;;3.75;3.42;;;7.40;99.90;;;;;;5113917;28;20231;-86
2023/01/09 07:37:40;;;;;;;3.72;3.42;;;7.40;99.90;;;;;;5113525;28;20283;-86
2023/01/09 07:40:09;;;;;;;4.40;4.00;;;7.40;99.90;;;;;;5113823;28;20257;-86
2023/01/09 07:42:37;;;;;;;5.10;4.53;;;7.50;99.90;;;;;;5113678;28;20286;-85
2023/01/09 07:45:07;;;;;;;4.88;4.22;;;7.40;99.90;;;;;;5113747;28;20234;-85
2023/01/09 07:47:36;;;;;;;5.30;4.88;;;7.40;99.90;;;;;;5113660;28;20200;-86
2023/01/09 07:50:04;;;;;;;7.60;6.90;;;7.40;99.90;;;;;;5113604;28;20196;-86
2023/01/09 07:52:33;;;;;;;10.40;9.30;;;7.30;99.90;;;;;;5113627;28;20200;-85
2023/01/09 07:55:03;;;;;;;10.50;9.50;;;6.90;99.90;;;;;;5113443;28;20208;-85
2023/01/09 07:57:31;;;;;;;11.00;9.38;;;6.60;99.90;;;;;;5112769;28;20203;-85
2023/01/09 08:00:02;;;;;;;11.48;10.35;;;6.10;99.90;;;;;;5113482;28;20208;-85
2023/01/09 08:02:30;;;;;;;12.82;11.50;;;5.70;99.90;;;;;;5113256;28;20323;-85
2023/01/09 08:04:58;;;;;;;11.60;10.43;;;5.50;99.90;;;;;;5113161;28;20248;-86
2023/01/09 08:07:26;;;;;;;10.48;9.48;;;5.30;99.90;;;;;;5113298;28;20203;-86
2023/01/09 08:09:55;;;;;;;14.50;11.00;;;5.20;99.90;;;;;;5113036;28;20203;-86
2023/01/09 08:12:24;;;;;;;15.63;11.90;;;5.10;99.90;;;;;;5113677;28;20199;-86
2023/01/09 08:14:53;;;;;;;16.48;10.52;;;5.10;99.90;;;;;;5113594;28;20211;-86
2023/01/09 08:17:21;;;;;;;11.43;10.30;;;5.20;99.90;;;;;;5113035;28;20253;-85
2023/01/09 08:19:51;;;;;;;15.00;10.98;;;5.20;99.90;;;;;;5112621;28;20210;-86
2023/01/09 08:22:19;;;;;;;12.48;10.43;;;5.20;99.90;;;;;;5113463;28;20220;-85
2023/01/09 08:24:48;;;;;;;11.00;9.85;;;5.20;99.90;;;;;;5112883;28;20211;-85
2023/01/09 08:27:16;;;;;;;10.60;9.52;;;5.30;99.90;;;;;;5111919;28;20215;-86
2023/01/09 08:29:46;;;;;;;11.68;10.35;;;5.30;99.90;;;;;;5112712;28;20261;-85
2023/01/09 08:32:14;;;;;;;10.32;9.15;;;5.40;99.90;;;;;;5112435;28;20204;-85
2023/01/09 08:34:42;;;;;;;12.50;10.57;;;5.50;99.90;;;;;;5113211;28;20200;-86
2023/01/09 08:37:11;;;;;;;9.27;8.38;;;5.50;99.90;;;;;;5112574;28;20224;-86
2023/01/09 08:39:39;;;;;;;11.65;9.68;;;5.50;99.90;;;;;;5112884;28;20270;-86
2023/01/09 08:47:42;;;;;;;18.27;10.82;;;5.60;99.90;;;;;;5091227;28;20196;-85
2023/01/09 08:50:12;;;;;;;10.43;9.32;;;5.50;99.90;;;;;;5113181;28;20203;-87
2023/01/09 08:52:40;;;;;;;11.88;9.05;;;5.50;99.90;;;;;;5112631;28;20295;-85
2023/01/09 08:55:10;;;;;;;10.63;8.68;;;5.50;99.90;;;;;;5114168;28;20204;-85
2023/01/09 08:57:47;;;;;;;8.77;7.97;;;5.50;99.90;;;;;;5117084;28;20218;-85
2023/01/09 09:00:18;;;;;;;11.10;8.82;;;5.60;99.90;;;;;;5116964;28;20290;-85
2023/01/09 09:02:50;;;;;;;8.70;7.90;;;5.60;99.90;;;;;;5116779;28;20219;-85
2023/01/09 09:05:19;;;;;;;8.02;7.28;;;5.60;99.90;;;;;;5116891;28;20238;-85
2023/01/09 09:07:48;;;;;;;9.18;8.18;;;5.60;99.90;;;;;;5116176;28;20200;-84
2023/01/09 09:10:17;;;;;;;9.40;8.50;;;5.50;99.90;;;;;;5116238;28;20191;-85
2023/01/09 09:12:47;;;;;;;9.18;8.27;;;5.50;99.90;;;;;;5115835;28;20286;-84
2023/01/09 09:15:22;;;;;;;10.13;9.13;;;5.60;99.90;;;;;;5116032;28;20254;-85
2023/01/09 09:17:53;;;;;;;8.77;7.93;;;5.60;99.90;;;;;;5116874;28;20223;-85
2023/01/09 09:20:22;;;;;;;8.52;7.72;;;5.60;99.90;;;;;;5115737;28;20202;-85
2023/01/09 09:22:51;;;;;;;8.05;6.90;;;5.70;99.90;;;;;;5115777;28;20275;-86
2023/01/09 09:25:19;;;;;;;11.00;8.10;;;5.80;99.90;;;;;;5115810;28;20227;-85
2023/01/09 09:27:48;;;;;;;8.52;7.13;;;5.90;99.90;;;;;;5116217;28;20291;-85
2023/01/09 09:30:20;;;;;;;6.63;6.03;;;5.90;99.90;;;;;;5115885;28;20200;-85
2023/01/09 09:32:48;;;;;;;7.13;6.20;;;6.00;99.90;;;;;;5116821;28;20246;-85
2023/01/09 09:35:18;;;;;;;5.80;5.28;;;6.10;99.90;;;;;;5116090;28;20215;-88
2023/01/09 09:37:55;;;;;;;4.63;4.28;;;6.30;99.90;;;;;;5115574;28;20227;-85
2023/01/09 09:40:47;;;;;;;5.97;5.38;;;6.40;99.90;;;;;;5095929;28;20215;-86
2023/01/09 09:46:37;;;;;;;3.35;3.15;;;6.50;99.90;;;;;;5115429;28;20436;-86
2023/01/09 09:49:14;;;;;;;3.55;3.25;;;6.60;99.90;;;;;;5105160;28;20195;-85
2023/01/09 09:52:03;;;;;;;4.63;4.18;;;6.60;99.90;;;;;;5115738;28;20211;-86
2023/01/09 09:54:37;;;;;;;2.75;2.55;;;6.60;99.90;;;;;;5115328;28;20203;-86
2023/01/09 09:57:06;;;;;;;3.42;2.85;;;6.70;99.90;;;;;;5115738;28;20294;-85
2023/01/09 09:59:37;;;;;;;3.15;2.88;;;6.80;99.90;;;;;;5115452;28;20211;-87
2023/01/09 10:02:25;;;;;;;3.13;2.92;;;6.70;99.90;;;;;;5115880;28;20227;-89
2023/01/09 10:05:00;;;;;;;3.60;2.78;;;6.70;99.90;;;;;;5115281;28;20214;-89
2023/01/09 10:07:33;;;;;;;3.20;2.92;;;6.60;99.90;;;;;;5110668;28;20206;-88
2023/01/09 10:10:04;;;;;;;3.20;3.00;;;6.70;99.90;;;;;;5116230;28;20204;-89
2023/01/09 10:12:39;;;;;;;4.55;3.50;;;6.60;99.90;;;;;;5116591;28;20192;-88
2023/01/09 10:15:16;;;;;;;3.08;2.47;;;6.60;99.90;;;;;;5114467;28;20281;-88
2023/01/09 10:18:05;;;;;;;3.20;2.90;;;6.60;99.90;;;;;;5116189;28;20208;-88
2023/01/09 10:20:49;;;;;;;2.90;2.70;;;6.60;99.90;;;;;;5115678;28;20206;-87
2023/01/09 10:23:44;;;;;;;3.47;3.00;;;6.60;99.90;;;;;;5115999;28;20219;-88
2023/01/09 10:26:21;;;;;;;2.40;2.20;;;6.60;99.90;;;;;;5111083;28;20247;-88
2023/01/09 10:29:22;;;;;;;2.85;2.65;;;6.60;99.90;;;;;;5115957;28;20204;-88
2023/01/09 10:32:01;;;;;;;2.38;2.20;;;6.60;99.90;;;;;;5106173;28;20242;-89
2023/01/09 10:34:45;;;;;;;1.75;1.65;;;6.60;99.90;;;;;;5110130;28;20196;-88
2023/01/09 10:37:18;;;;;;;1.75;1.65;;;6.60;99.90;;;;;;5116008;28;20227;-88
2023/01/09 10:39:52;;;;;;;1.15;1.15;;;6.60;99.90;;;;;;5116046;28;20257;-88
2023/01/09 10:42:29;;;;;;;2.15;1.77;;;6.70;99.90;;;;;;5095271;28;20208;-89
2023/01/09 10:45:03;;;;;;;1.40;1.30;;;6.70;99.90;;;;;;5095501;28;20283;-88
2023/01/09 10:47:34;;;;;;;4.20;1.95;;;6.70;99.90;;;;;;5094757;28;20267;-88
2023/01/09 10:50:19;;;;;;;0.88;0.88;;;6.70;99.90;;;;;;5102716;28;20206;-88
2023/01/09 10:52:50;;;;;;;1.00;1.00;;;6.70;99.90;;;;;;5114804;28;20223;-89
2023/01/09 10:55:25;;;;;;;1.05;1.05;;;6.70;99.90;;;;;;5114789;28;20207;-87
2023/01/09 10:57:57;;;;;;;1.50;1.38;;;6.70;99.90;;;;;;5113302;28;20200;-89
2023/01/09 11:00:26;;;;;;;1.17;1.08;;;6.80;99.90;;;;;;5115396;28;20226;-87
2023/01/09 11:02:55;;;;;;;1.00;1.00;;;6.70;99.90;;;;;;5115084;28;20219;-89
2023/01/09 11:05:29;;;;;;;0.70;0.70;;;6.80;99.90;;;;;;5115014;28;20454;-90
2023/01/09 11:08:04;;;;;;;0.80;0.80;;;6.80;99.90;;;;;;5114413;28;20252;-89
2023/01/09 11:10:50;;;;;;;0.73;0.73;;;6.90;99.90;;;;;;5112765;28;20211;-87
2023/01/09 11:13:21;;;;;;;0.70;0.70;;;6.90;99.90;;;;;;5114739;28;20196;-89
2023/01/09 11:16:08;;;;;;;0.70;0.70;;;7.00;99.90;;;;;;5115071;28;20228;-89
2023/01/09 11:18:39;;;;;;;2.13;0.68;;;7.00;99.90;;;;;;5114101;28;20200;-88
2023/01/09 11:21:29;;;;;;;0.70;0.70;;;7.10;99.90;;;;;;5115037;28;20196;-88
2023/01/09 11:24:28;;;;;;;0.60;0.60;;;7.20;99.90;;;;;;5114734;28;20272;-88
2023/01/09 11:27:23;;;;;;;0.80;0.55;;;7.20;99.90;;;;;;5094505;28;20267;-89
2023/01/09 11:30:16;;;;;;;0.70;0.70;;;7.20;99.90;;;;;;5107992;28;20286;-88
2023/01/09 11:32:46;;;;;;;0.47;0.47;;;7.20;99.90;;;;;;5114526;28;20202;-88
2023/01/09 11:35:21;;;;;;;0.65;0.65;;;7.20;99.90;;;;;;5114381;28;20232;-87
2023/01/09 11:38:05;;;;;;;0.60;0.60;;;7.10;99.90;;;;;;5114159;28;20286;-89
2023/01/09 11:40:55;;;;;;;0.85;0.80;;;7.10;99.90;;;;;;5093920;28;20219;-89
2023/01/09 11:43:33;;;;;;;0.60;0.60;;;7.10;99.90;;;;;;5081234;28;20235;-85
2023/01/09 11:46:05;;;;;;;0.70;0.70;;;7.00;99.90;;;;;;5094241;28;20239;-85
2023/01/09 11:48:52;;;;;;;0.75;0.75;;;7.00;99.90;;;;;;5093863;28;20208;-84
2023/01/09 11:51:26;;;;;;;0.40;0.40;;;7.00;99.90;;;;;;5094463;28;20300;-85
2023/01/09 11:54:14;;;;;;;0.82;0.80;;;7.00;99.90;;;;;;5094176;28;20227;-84
2023/01/09 11:56:43;;;;;;;0.55;0.55;;;7.00;99.90;;;;;;5093473;28;20273;-84
2023/01/09 11:59:14;;;;;;;0.63;0.63;;;7.00;99.90;;;;;;5093674;28;20208;-85
2023/01/09 12:02:11;;;;;;;0.63;0.57;;;7.00;99.90;;;;;;5107110;28;20200;-84
2023/01/09 12:04:48;;;;;;;0.77;0.77;;;7.00;99.90;;;;;;5114339;28;20224;-84
2023/01/09 12:07:47;;;;;;;0.60;0.60;;;7.10;99.90;;;;;;5113840;28;20215;-84
2023/01/09 12:10:37;;;;;;;0.63;0.63;;;7.10;99.90;;;;;;5108991;28;20199;-85
2023/01/09 12:13:18;;;;;;;0.40;0.40;;;7.10;99.90;;;;;;5113338;28;20198;-84
2023/01/09 12:15:55;;;;;;;0.65;0.65;;;7.20;99.90;;;;;;5111374;28;20287;-84
2023/01/09 12:18:39;;;;;;;0.60;0.60;;;7.20;99.90;;;;;;5113000;28;20192;-85
2023/01/09 12:21:34;;;;;;;0.77;0.77;;;7.30;99.90;;;;;;5113460;28;20207;-83
2023/01/09 12:24:38;;;;;;;0.35;0.35;;;7.40;99.90;;;;;;5112887;28;20239;-83
2023/01/09 12:27:21;;;;;;;0.75;0.75;;;7.50;99.90;;;;;;5104393;28;20227;-83
2023/01/09 12:30:03;;;;;;;0.80;0.80;;;7.50;99.90;;;;;;5092680;28;20231;-83
2023/01/09 12:32:45;;;;;;;0.68;0.68;;;7.60;99.90;;;;;;5092803;28;20238;-83
2023/01/09 12:35:24;;;;;;;0.35;0.35;;;7.60;99.90;;;;;;5096553;28;20286;-84
2023/01/09 12:38:20;;;;;;;0.70;0.63;;;7.70;99.90;;;;;;5112940;28;20199;-85
2023/01/09 12:41:11;;;;;;;0.55;0.55;;;7.70;99.90;;;;;;5112734;28;20208;-84
2023/01/09 12:43:47;;;;;;;0.40;0.40;;;7.70;99.90;;;;;;5107512;28;20219;-84
2023/01/09 12:46:18;;;;;;;0.57;0.57;;;7.80;99.90;;;;;;5113017;28;20238;-83
2023/01/09 12:49:06;;;;;;;0.40;0.40;;;7.80;99.90;;;;;;5110371;28;20207;-84
2023/01/09 12:51:39;;;;;;;0.60;0.60;;;7.80;99.90;;;;;;5112836;28;20210;-83
2023/01/09 12:54:16;;;;;;;0.85;0.85;;;7.80;99.90;;;;;;5113003;28;20199;-84
2023/01/09 12:56:48;;;;;;;1.02;0.73;;;7.80;99.90;;;;;;5112577;28;20231;-83
2023/01/09 12:59:33;;;;;;;0.50;0.50;;;7.80;99.90;;;;;;5110517;28;20200;-84
2023/01/09 13:02:12;;;;;;;0.90;0.90;;;7.80;99.90;;;;;;5112596;28;20218;-85
2023/01/09 13:04:49;;;;;;;0.70;0.70;;;7.80;99.90;;;;;;5111943;28;20230;-84
2023/01/09 13:07:23;;;;;;;0.93;0.93;;;7.70;99.90;;;;;;5111779;28;20223;-84
2023/01/09 13:09:58;;;;;;;1.10;1.00;;;7.70;99.90;;;;;;5112562;28;20286;-84
2023/01/09 13:12:30;;;;;;;0.70;0.70;;;7.70;99.90;;;;;;5112211;28;20238;-84
2023/01/09 13:15:02;;;;;;;0.80;0.80;;;7.70;99.90;;;;;;5112104;28;20214;-84
2023/01/09 13:17:39;;;;;;;1.38;1.27;;;7.70;99.90;;;;;;5111939;28;20226;-84
2023/01/09 13:20:20;;;;;;;1.20;1.10;;;7.70;99.90;;;;;;5112404;28;20279;-84
2023/01/09 13:22:51;;;;;;;1.60;1.50;;;7.70;99.90;;;;;;5112360;28;20238;-85
2023/01/09 13:25:35;;;;;;;1.38;1.27;;;7.70;99.90;;;;;;5112058;28;20223;-85
2023/01/09 13:28:11;;;;;;;0.90;0.90;;;7.70;99.90;;;;;;5111750;28;20200;-84
2023/01/09 13:31:06;;;;;;;1.90;1.75;;;7.70;99.90;;;;;;5111484;28;20199;-84
2023/01/09 13:33:36;;;;;;;1.40;1.30;;;7.70;99.90;;;;;;5091436;28;20204;-85
2023/01/09 13:36:06;;;;;;;1.40;1.33;;;7.70;99.90;;;;;;5091800;28;20243;-85